Time;durP1;ratioP1;P1;durP2;ratioP2;P2;SDS_P1;SDS_P2;PMS_P1;PMS_P2;Temp;Humidity;BMP_temperature;BMP_pressure;BME280_temperature;BME280_humidity;BME280_pressure;Samples;Min_cycle;Max_cycle;Signal;HPM_P1;HPM_P2
2023/10/25 00:01:17;;;;;;;;;;;;;;;8.24;100.00;99536.38;5092060;28;19927;-66
2023/10/25 00:04:20;;;;;;;;;;;;;;;8.14;100.00;99542.13;5091568;28;20467;-66
2023/10/25 00:07:22;;;;;;;;;;;;;;;8.19;100.00;99533.19;5093888;28;19962;-66
2023/10/25 00:10:26;;;;;;;;;;;;;;;8.21;99.99;99524.38;5095909;28;20037;-66
2023/10/25 00:13:29;;;;;;;;;;;;;;;8.19;98.66;99522.78;5095767;28;19923;-66
2023/10/25 00:16:32;;;;;;;;;;;;;;;8.29;97.49;99523.91;5095430;28;19942;-66
2023/10/25 00:19:35;;;;;;;;;;;;;;;8.26;97.34;99518.88;5095776;28;19927;-66
2023/10/25 00:22:37;;;;;;;;;;;;;;;8.23;96.72;99527.75;5095632;28;19978;-66
2023/10/25 00:25:40;;;;;;;;;;;;;;;8.07;97.09;99530.41;5095316;28;19969;-66
2023/10/25 00:28:43;;;;;;;;;;;;;;;8.06;96.84;99527.88;5095487;28;19969;-66
2023/10/25 00:31:46;;;;;;;;;;;;;;;7.96;97.40;99521.50;5094769;28;19942;-66
2023/10/25 00:34:49;;;;;;;;;;;;;;;8.11;97.04;99523.25;5095378;28;20527;-66
2023/10/25 00:37:52;;;;;;;;;;;;;;;8.12;96.64;99527.50;5095408;28;19923;-66
2023/10/25 00:40:55;;;;;;;;;;;;;;;8.05;97.19;99527.03;5094741;28;19923;-66
2023/10/25 00:43:58;;;;;;;;;;;;;;;8.00;97.17;99533.41;5095183;28;19922;-66
2023/10/25 00:47:01;;;;;;;;;;;;;;;8.02;96.90;99532.41;5094325;28;19922;-66
2023/10/25 00:50:05;;;;;;;;;;;;;;;7.99;97.23;99524.78;5095153;28;19928;-66
2023/10/25 00:53:08;;;;;;;;;;;;;;;7.97;97.22;99524.00;5095359;28;19993;-66
2023/10/25 00:56:11;;;;;;;;;;;;;;;8.00;96.70;99531.66;5095047;28;20478;-66
2023/10/25 00:59:15;;;;;;;;;;;;;;;7.87;96.53;99528.06;5095034;28;19923;-66
2023/10/25 01:02:19;;;;;;;;;;;;;;;7.92;96.53;99526.06;5094791;28;19993;-66
2023/10/25 01:05:22;;;;;;;;;;;;;;;7.86;96.96;99529.00;5094130;28;20411;-66
2023/10/25 01:08:25;;;;;;;;;;;;;;;7.79;97.20;99522.47;5092849;28;20011;-66
2023/10/25 01:11:28;;;;;;;;;;;;;;;7.81;97.60;99531.84;5094046;28;19922;-66
2023/10/25 01:14:31;;;;;;;;;;;;;;;7.90;97.49;99528.75;5094495;28;20416;-66
2023/10/25 01:17:34;;;;;;;;;;;;;;;7.92;97.97;99528.66;5094094;28;19927;-66
2023/10/25 01:20:37;;;;;;;;;;;;;;;7.93;96.96;99528.56;5094580;28;19922;-66
2023/10/25 01:23:41;;;;;;;;;;;;;;;7.99;96.64;99526.53;5094618;28;19973;-66
2023/10/25 01:26:44;;;;;;;;;;;;;;;7.87;96.48;99520.28;5093907;28;19970;-66
2023/10/25 01:29:47;;;;;;;;;;;;;;;7.88;96.54;99519.34;5094127;28;19969;-66
2023/10/25 01:32:50;;;;;;;;;;;;;;;7.92;96.84;99515.66;5094132;28;20005;-66
2023/10/25 01:35:53;;;;;;;;;;;;;;;7.90;96.90;99510.50;5094013;28;19968;-66
2023/10/25 01:38:56;;;;;;;;;;;;;;;7.87;97.46;99512.47;5094016;28;20028;-66
2023/10/25 01:42:00;;;;;;;;;;;;;;;7.79;97.70;99509.47;5094100;28;19927;-66
2023/10/25 01:45:03;;;;;;;;;;;;;;;7.81;98.19;99505.84;5093545;28;19923;-66
2023/10/25 01:48:08;;;;;;;;;;;;;;;7.80;97.71;99509.38;5094091;28;19924;-66
2023/10/25 01:51:11;;;;;;;;;;;;;;;7.81;98.46;99512.81;5093912;28;19923;-66
2023/10/25 01:54:15;;;;;;;;;;;;;;;7.89;98.16;99508.00;5093830;28;19966;-66
2023/10/25 01:57:18;;;;;;;;;;;;;;;7.79;98.10;99504.28;5092686;28;19927;-66
2023/10/25 02:00:22;;;;;;;;;;;;;;;7.86;97.52;99489.97;5094101;28;19926;-66
2023/10/25 02:03:25;;;;;;;;;;;;;;;7.85;97.17;99477.91;5093276;28;19935;-66
2023/10/25 02:06:27;;;;;;;;;;;;;;;7.74;98.13;99477.66;5092831;28;19923;-66
2023/10/25 02:09:30;;;;;;;;;;;;;;;7.80;98.33;99470.34;5092550;28;19923;-66
2023/10/25 02:12:33;;;;;;;;;;;;;;;7.77;98.07;99472.28;5092538;28;19939;-66
2023/10/25 02:15:36;;;;;;;;;;;;;;;7.85;98.33;99467.50;5092733;28;19959;-66
2023/10/25 02:18:40;;;;;;;;;;;;;;;7.93;97.61;99457.44;5093540;28;19941;-66
2023/10/25 02:21:44;;;;;;;;;;;;;;;7.93;96.90;99465.25;5093259;28;20425;-66
2023/10/25 02:24:51;;;;;;;;;;;;;;;7.88;97.16;99467.28;5092591;28;20003;-66
2023/10/25 02:27:54;;;;;;;;;;;;;;;7.85;96.85;99462.28;5093302;28;19968;-67
2023/10/25 02:30:57;;;;;;;;;;;;;;;7.84;97.23;99465.78;5091791;28;20370;-66
2023/10/25 02:34:00;;;;;;;;;;;;;;;7.79;97.42;99457.44;5093210;28;19992;-66
2023/10/25 02:37:04;;;;;;;;;;;;;;;7.83;97.56;99453.72;5092405;28;19939;-66
2023/10/25 02:40:07;;;;;;;;;;;;;;;7.73;96.65;99442.16;5092165;28;19966;-66
2023/10/25 02:43:10;;;;;;;;;;;;;;;7.49;98.95;99445.22;5092208;28;20012;-66
2023/10/25 02:46:13;;;;;;;;;;;;;;;7.43;100.00;99442.97;5092684;28;19923;-66
2023/10/25 02:49:16;;;;;;;;;;;;;;;7.64;100.00;99446.97;5091687;28;19938;-66
2023/10/25 02:52:20;;;;;;;;;;;;;;;7.72;99.52;99450.88;5092728;28;20009;-66
2023/10/25 02:55:23;;;;;;;;;;;;;;;7.62;99.74;99445.38;5092640;28;19923;-66
2023/10/25 02:58:26;;;;;;;;;;;;;;;7.13;100.00;99448.97;5092038;28;19923;-66
2023/10/25 03:01:29;;;;;;;;;;;;;;;7.08;100.00;99435.38;5091966;28;19927;-66
2023/10/25 03:04:32;;;;;;;;;;;;;;;6.87;100.00;99432.22;5091544;28;20338;-66
2023/10/25 03:07:35;;;;;;;;;;;;;;;6.89;100.00;99424.31;5092222;28;19966;-66
2023/10/25 03:10:38;;;;;;;;;;;;;;;6.92;100.00;99418.94;5091073;28;20403;-66
2023/10/25 03:13:41;;;;;;;;;;;;;;;7.24;100.00;99419.75;5090830;28;19969;-66
2023/10/25 03:16:44;;;;;;;;;;;;;;;7.02;100.00;99412.34;5092584;28;20455;-66
2023/10/25 03:19:47;;;;;;;;;;;;;;;7.00;100.00;99414.19;5092192;28;20054;-66
2023/10/25 03:22:50;;;;;;;;;;;;;;;6.98;100.00;99421.22;5091857;28;19977;-66
2023/10/25 03:25:53;;;;;;;;;;;;;;;7.18;100.00;99405.38;5092666;28;19923;-66
2023/10/25 03:28:57;;;;;;;;;;;;;;;7.20;100.00;99403.50;5091854;28;19939;-66
2023/10/25 03:32:00;;;;;;;;;;;;;;;7.29;100.00;99404.75;5092448;28;19985;-66
2023/10/25 03:35:04;;;;;;;;;;;;;;;7.35;100.00;99400.97;5091817;28;19973;-66
2023/10/25 03:38:07;;;;;;;;;;;;;;;7.15;100.00;99395.16;5091822;28;19923;-66
2023/10/25 03:41:11;;;;;;;;;;;;;;;7.32;100.00;99395.94;5093270;28;19924;-66
2023/10/25 03:44:14;;;;;;;;;;;;;;;7.40;99.44;99394.59;5095755;28;19966;-66
2023/10/25 03:47:16;;;;;;;;;;;;;;;7.35;98.20;99391.41;5096095;28;19922;-66
2023/10/25 03:50:19;;;;;;;;;;;;;;;7.27;98.09;99382.34;5096159;28;19923;-66
2023/10/25 03:53:22;;;;;;;;;;;;;;;7.05;97.94;99378.41;5095868;28;19954;-66
2023/10/25 03:56:25;;;;;;;;;;;;;;;7.18;97.99;99387.16;5096314;28;19927;-66
2023/10/25 03:59:28;;;;;;;;;;;;;;;7.30;97.66;99371.78;5095273;28;19923;-66
2023/10/25 04:02:31;;;;;;;;;;;;;;;7.18;98.75;99381.13;5096013;28;19926;-66
2023/10/25 04:05:34;;;;;;;;;;;;;;;7.30;98.24;99385.63;5095490;28;19923;-66
2023/10/25 04:08:38;;;;;;;;;;;;;;;7.35;98.73;99383.59;5095701;28;19958;-66
2023/10/25 04:11:41;;;;;;;;;;;;;;;7.36;98.40;99379.25;5095722;28;19942;-66
2023/10/25 04:14:44;;;;;;;;;;;;;;;7.42;98.56;99381.50;5095326;28;19946;-66
2023/10/25 04:17:47;;;;;;;;;;;;;;;7.36;98.67;99387.03;5094919;28;19961;-66
2023/10/25 04:20:51;;;;;;;;;;;;;;;7.30;98.87;99382.19;5095655;28;19934;-66
2023/10/25 04:23:54;;;;;;;;;;;;;;;7.34;98.91;99368.06;5095839;28;19927;-66
2023/10/25 04:26:59;;;;;;;;;;;;;;;7.33;98.55;99371.63;5095619;28;19941;-66
2023/10/25 04:30:02;;;;;;;;;;;;;;;7.12;99.94;99369.31;5095261;28;20342;-66
2023/10/25 04:33:06;;;;;;;;;;;;;;;7.13;99.89;99360.59;5095741;28;19922;-66
2023/10/25 04:36:11;;;;;;;;;;;;;;;7.18;99.78;99355.97;5094586;28;19941;-66
2023/10/25 04:39:15;;;;;;;;;;;;;;;7.16;100.00;99354.38;5094525;28;20365;-66
2023/10/25 04:42:18;;;;;;;;;;;;;;;7.11;100.00;99346.00;5095126;28;20030;-66
2023/10/25 04:45:21;;;;;;;;;;;;;;;7.14;100.00;99346.66;5094096;28;19923;-66
2023/10/25 04:48:24;;;;;;;;;;;;;;;7.16;100.00;99343.97;5095191;28;19922;-66
2023/10/25 04:51:27;;;;;;;;;;;;;;;7.26;100.00;99339.09;5094975;28;20299;-66
2023/10/25 04:54:31;;;;;;;;;;;;;;;7.21;100.00;99341.94;5094725;28;19958;-66
2023/10/25 04:57:34;;;;;;;;;;;;;;;7.10;100.00;99334.75;5094891;28;19962;-66
2023/10/25 05:00:37;;;;;;;;;;;;;;;6.82;100.00;99332.03;5094995;28;19966;-66
2023/10/25 05:03:43;;;;;;;;;;;;;;;6.94;100.00;99321.81;5094532;28;19965;-66
2023/10/25 05:06:46;;;;;;;;;;;;;;;7.13;100.00;99318.16;5094730;28;20039;-66
2023/10/25 05:09:50;;;;;;;;;;;;;;;7.14;99.99;99325.84;5094201;28;19922;-66
2023/10/25 05:12:53;;;;;;;;;;;;;;;6.99;99.77;99309.41;5094603;28;19923;-66
2023/10/25 05:15:56;;;;;;;;;;;;;;;6.71;100.00;99312.69;5094384;28;19974;-67
2023/10/25 05:19:00;;;;;;;;;;;;;;;6.84;100.00;99312.03;5093982;28;19922;-67
2023/10/25 05:22:10;;;;;;;;;;;;;;;6.75;100.00;99319.41;5094676;28;20398;-66
2023/10/25 05:25:13;;;;;;;;;;;;;;;6.56;100.00;99323.94;5094373;28;19922;-66
2023/10/25 05:28:16;;;;;;;;;;;;;;;6.87;100.00;99319.66;5094310;28;19989;-66
2023/10/25 05:31:21;;;;;;;;;;;;;;;7.02;100.00;99320.53;5093639;28;20008;-66
2023/10/25 05:34:24;;;;;;;;;;;;;;;7.16;100.00;99321.41;5094207;28;19923;-66
2023/10/25 05:37:28;;;;;;;;;;;;;;;7.14;99.97;99312.84;5094113;28;19941;-66
2023/10/25 05:40:31;;;;;;;;;;;;;;;7.18;99.28;99316.97;5094144;28;19923;-66
2023/10/25 05:43:37;;;;;;;;;;;;;;;7.22;98.53;99308.06;5094100;28;19981;-66
2023/10/25 05:46:40;;;;;;;;;;;;;;;7.21;97.74;99301.19;5093879;28;19923;-66
2023/10/25 05:49:43;;;;;;;;;;;;;;;7.18;98.30;99296.19;5093645;28;19923;-66
2023/10/25 05:52:46;;;;;;;;;;;;;;;7.15;98.88;99296.34;5094170;28;19961;-66
2023/10/25 05:55:50;;;;;;;;;;;;;;;7.25;99.53;99293.22;5093815;28;20418;-66
2023/10/25 05:58:54;;;;;;;;;;;;;;;7.29;99.87;99292.13;5093926;28;20291;-66
2023/10/25 06:02:01;;;;;;;;;;;;;;;7.17;100.00;99289.28;5093439;28;19946;-66
2023/10/25 06:05:09;;;;;;;;;;;;;;;7.12;99.87;99283.53;5093678;28;19923;-66
2023/10/25 06:08:12;;;;;;;;;;;;;;;7.04;100.00;99288.31;5093583;28;20007;-66
2023/10/25 06:11:15;;;;;;;;;;;;;;;7.11;100.00;99284.44;5092389;28;19926;-66
2023/10/25 06:14:19;;;;;;;;;;;;;;;7.14;100.00;99271.25;5091800;28;20272;-66
2023/10/25 06:17:22;;;;;;;;;;;;;;;7.16;99.87;99266.00;5091485;28;19923;-66
2023/10/25 06:20:27;;;;;;;;;;;;;;;7.24;100.00;99276.75;5091280;28;20303;-67
2023/10/25 06:23:33;;;;;;;;;;;;;;;7.15;100.00;99259.97;5091591;28;20411;-67
2023/10/25 06:26:36;;;;;;;;;;;;;;;7.23;100.00;99256.91;5091409;28;20006;-67
2023/10/25 06:29:38;;;;;;;;;;;;;;;7.08;100.00;99255.19;5090554;28;19922;-75
2023/10/25 06:32:41;;;;;;;;;;;;;;;6.89;100.00;99260.63;5091918;28;19988;-71
2023/10/25 06:35:47;;;;;;;;;;;;;;;7.45;100.00;99262.50;5091357;28;20463;-70
2023/10/25 06:38:50;;;;;;;;;;;;;;;7.49;100.00;99257.97;5092193;28;19981;-65
2023/10/25 06:41:53;;;;;;;;;;;;;;;7.41;100.00;99255.00;5091381;28;20013;-64
2023/10/25 06:44:57;;;;;;;;;;;;;;;7.38;100.00;99243.00;5091510;28;19923;-64
2023/10/25 06:48:00;;;;;;;;;;;;;;;7.42;100.00;99233.25;5091595;28;19923;-65
2023/10/25 06:51:07;;;;;;;;;;;;;;;7.50;100.00;99233.63;5091711;28;19942;-65
2023/10/25 06:54:10;;;;;;;;;;;;;;;7.45;100.00;99217.47;5091200;28;20065;-65
2023/10/25 06:57:14;;;;;;;;;;;;;;;7.50;100.00;99220.63;5091515;28;19923;-64
2023/10/25 07:00:17;;;;;;;;;;;;;;;7.41;100.00;99218.59;5091521;28;19923;-65
2023/10/25 07:03:24;;;;;;;;;;;;;;;7.38;100.00;99210.97;5091330;28;19927;-67
2023/10/25 07:06:27;;;;;;;;;;;;;;;7.28;100.00;99202.06;5091656;28;19923;-65
2023/10/25 07:09:30;;;;;;;;;;;;;;;7.06;100.00;99192.91;5091500;28;19926;-64
2023/10/25 07:12:33;;;;;;;;;;;;;;;7.07;100.00;99183.34;5090932;28;19927;-65
2023/10/25 07:15:40;;;;;;;;;;;;;;;7.37;100.00;99178.06;5092231;28;19958;-65
2023/10/25 07:18:45;;;;;;;;;;;;;;;7.52;100.00;99174.53;5095454;28;19994;-65
2023/10/25 07:21:48;;;;;;;;;;;;;;;7.57;100.00;99166.47;5095343;28;20534;-65
2023/10/25 07:24:52;;;;;;;;;;;;;;;7.45;100.00;99161.06;5095540;28;19938;-67
2023/10/25 07:27:56;;;;;;;;;;;;;;;7.43;100.00;99159.50;5095125;28;19961;-67
2023/10/25 07:30:58;;;;;;;;;;;;;;;7.60;100.00;99155.88;5095058;28;19928;-65
2023/10/25 07:34:02;;;;;;;;;;;;;;;7.79;100.00;99142.56;5095684;28;19968;-66
2023/10/25 07:37:05;;;;;;;;;;;;;;;7.89;100.00;99146.25;5095282;28;19922;-66
2023/10/25 07:40:09;;;;;;;;;;;;;;;7.88;100.00;99128.94;5095315;28;19968;-66
2023/10/25 07:43:12;;;;;;;;;;;;;;;8.00;100.00;99130.78;5094971;28;19927;-66
2023/10/25 07:46:14;;;;;;;;;;;;;;;8.18;100.00;99127.94;5095113;28;20337;-66
2023/10/25 07:49:17;;;;;;;;;;;;;;;8.23;100.00;99129.31;5095162;28;19923;-66
2023/10/25 07:52:21;;;;;;;;;;;;;;;8.26;100.00;99123.88;5095261;28;20290;-66
2023/10/25 07:55:24;;;;;;;;;;;;;;;8.37;100.00;99111.00;5095486;28;19923;-66
2023/10/25 07:58:28;;;;;;;;;;;;;;;8.35;100.00;99117.25;5094878;28;20285;-66
2023/10/25 08:01:31;;;;;;;;;;;;;;;8.38;100.00;99114.47;5095064;28;19923;-66
2023/10/25 08:04:34;;;;;;;;;;;;;;;8.26;100.00;99113.47;5095280;28;20010;-66
2023/10/25 08:07:37;;;;;;;;;;;;;;;8.37;100.00;99105.78;5095132;28;20390;-66
2023/10/25 08:10:40;;;;;;;;;;;;;;;8.55;100.00;99095.97;5095184;28;20021;-66
2023/10/25 08:13:44;;;;;;;;;;;;;;;8.76;100.00;99090.25;5094188;28;19945;-66
2023/10/25 08:16:47;;;;;;;;;;;;;;;8.87;100.00;99098.19;5094614;28;19947;-66
2023/10/25 08:19:51;;;;;;;;;;;;;;;8.99;100.00;99089.50;5093616;28;20371;-66
2023/10/25 08:22:54;;;;;;;;;;;;;;;9.02;100.00;99084.06;5093967;28;19942;-65
2023/10/25 08:26:00;;;;;;;;;;;;;;;9.08;100.00;99070.63;5092873;28;19981;-65
2023/10/25 08:29:05;;;;;;;;;;;;;;;9.02;100.00;99071.03;5093578;28;19927;-64
2023/10/25 08:32:08;;;;;;;;;;;;;;;9.11;100.00;99089.63;5094761;28;19927;-65
2023/10/25 08:35:12;;;;;;;;;;;;;;;8.93;100.00;99076.88;5094143;28;20350;-64
2023/10/25 08:38:17;;;;;;;;;;;;;;;8.79;100.00;99064.81;5093962;28;19968;-65
2023/10/25 08:41:20;;;;;;;;;;;;;;;8.61;100.00;99051.28;5094288;28;19923;-64
2023/10/25 08:44:25;;;;;;;;;;;;;;;8.79;100.00;99033.53;5093860;28;19938;-63
2023/10/25 08:47:28;;;;;;;;;;;;;;;8.96;100.00;99008.91;5094156;28;19954;-65
2023/10/25 08:50:32;;;;;;;;;;;;;;;9.13;100.00;99001.69;5094198;28;19923;-64
2023/10/25 08:53:35;;;;;;;;;;;;;;;9.24;100.00;98988.72;5093723;28;19969;-67
2023/10/25 08:56:45;;;;;;;;;;;;;;;9.32;100.00;98994.22;5073383;28;19946;-64
2023/10/25 08:59:51;;;;;;;;;;;;;;;9.17;100.00;99000.53;5073334;28;19923;-64
2023/10/25 09:02:56;;;;;;;;;;;;;;;9.27;100.00;98998.94;5078578;28;19927;-65
2023/10/25 09:06:00;;;;;;;;;;;;;;;9.37;100.00;98996.50;5092902;28;20513;-67
2023/10/25 09:09:06;;;;;;;;;;;;;;;9.46;100.00;98990.63;5092915;28;19923;-65
2023/10/25 09:12:19;;;;;;;;;;;;;;;9.34;100.00;98989.72;5092127;28;20007;-65
2023/10/25 09:15:29;;;;;;;;;;;;;;;9.52;100.00;98985.78;5092531;28;19930;-66
2023/10/25 09:18:34;;;;;;;;;;;;;;;9.57;100.00;98984.63;5092066;28;19962;-66
2023/10/25 09:21:37;;;;;;;;;;;;;;;9.40;100.00;98996.28;5092234;28;20427;-66
2023/10/25 09:24:48;;;;;;;;;;;;;;;9.41;100.00;98984.88;5089061;28;19977;-66
2023/10/25 09:27:51;;;;;;;;;;;;;;;9.43;100.00;98970.78;5092241;28;19923;-66
2023/10/25 09:30:55;;;;;;;;;;;;;;;9.30;100.00;98951.75;5092398;28;20045;-65
2023/10/25 09:33:59;;;;;;;;;;;;;;;9.41;100.00;98967.47;5092328;28;19973;-66
2023/10/25 09:37:03;;;;;;;;;;;;;;;9.31;100.00;98958.63;5092099;28;19923;-66
2023/10/25 09:40:07;;;;;;;;;;;;;;;9.29;100.00;98955.31;5092006;28;20025;-66
2023/10/25 09:43:21;;;;;;;;;;;;;;;9.50;100.00;98945.91;5090628;28;19966;-66
2023/10/25 09:46:28;;;;;;;;;;;;;;;9.53;100.00;98937.88;5091635;28;20386;-66
2023/10/25 09:49:33;;;;;;;;;;;;;;;9.37;100.00;98933.88;5092019;28;19923;-66
2023/10/25 09:52:38;;;;;;;;;;;;;;;9.50;100.00;98929.44;5090284;28;19985;-66
2023/10/25 09:55:45;;;;;;;;;;;;;;;9.53;100.00;98917.00;5090861;28;20299;-66
2023/10/25 09:58:48;;;;;;;;;;;;;;;9.54;100.00;98918.69;5091754;28;20470;-66
2023/10/25 10:01:55;;;;;;;;;;;;;;;9.54;100.00;98920.47;5089098;28;20578;-67
2023/10/25 10:05:01;;;;;;;;;;;;;;;9.61;100.00;98913.00;5090338;28;19974;-66
2023/10/25 10:08:15;;;;;;;;;;;;;;;9.76;100.00;98909.25;5090957;28;19963;-66
2023/10/25 10:11:21;;;;;;;;;;;;;;;9.91;100.00;98902.88;5091747;28;20402;-65
2023/10/25 10:14:38;;;;;;;;;;;;;;;9.90;100.00;98890.78;5089677;28;20001;-65
2023/10/25 10:17:41;;;;;;;;;;;;;;;9.97;100.00;98891.97;5090634;28;19971;-65
2023/10/25 10:20:57;;;;;;;;;;;;;;;10.01;100.00;98877.72;5089545;28;19961;-65
2023/10/25 10:24:02;;;;;;;;;;;;;;;9.99;100.00;98868.38;5089057;28;19939;-65
2023/10/25 10:27:05;;;;;;;;;;;;;;;10.05;100.00;98861.81;5089809;28;19968;-65
2023/10/25 10:30:27;;;;;;;;;;;;;;;9.91;100.00;98861.09;5089777;28;19927;-65
2023/10/25 10:33:33;;;;;;;;;;;;;;;10.02;100.00;98850.69;5090012;28;19978;-66
2023/10/25 10:36:36;;;;;;;;;;;;;;;9.97;100.00;98850.19;5090934;28;19967;-65
2023/10/25 10:39:57;;;;;;;;;;;;;;;10.07;100.00;98841.66;5092024;28;19923;-66
2023/10/25 10:43:01;;;;;;;;;;;;;;;10.00;100.00;98826.47;5092011;28;19965;-66
2023/10/25 10:46:04;;;;;;;;;;;;;;;10.06;100.00;98824.34;5089350;28;20025;-65
2023/10/25 10:49:10;;;;;;;;;;;;;;;10.11;100.00;98809.94;5089589;28;19984;-65
2023/10/25 10:52:14;;;;;;;;;;;;;;;10.11;100.00;98798.69;5089894;28;19993;-65
2023/10/25 10:55:18;;;;;;;;;;;;;;;10.10;100.00;98794.41;5090901;28;19924;-65
2023/10/25 10:58:21;;;;;;;;;;;;;;;10.14;100.00;98777.53;5092139;28;19962;-65
2023/10/25 11:01:24;;;;;;;;;;;;;;;10.14;100.00;98772.31;5091561;28;19977;-65
2023/10/25 11:04:27;;;;;;;;;;;;;;;10.17;100.00;98756.41;5091639;28;20136;-66
2023/10/25 11:07:30;;;;;;;;;;;;;;;10.23;100.00;98745.50;5091561;28;19922;-65
2023/10/25 11:10:34;;;;;;;;;;;;;;;10.10;100.00;98743.00;5091560;28;19926;-66
2023/10/25 11:13:37;;;;;;;;;;;;;;;10.23;100.00;98725.41;5091707;28;19978;-66
2023/10/25 11:16:41;;;;;;;;;;;;;;;10.21;100.00;98718.66;5091207;28;19923;-65
2023/10/25 11:19:45;;;;;;;;;;;;;;;10.21;100.00;98711.66;5091569;28;19923;-65
2023/10/25 11:22:48;;;;;;;;;;;;;;;10.09;100.00;98703.97;5091646;28;19928;-65
2023/10/25 11:25:51;;;;;;;;;;;;;;;10.20;100.00;98696.94;5091573;28;19922;-66
2023/10/25 11:28:54;;;;;;;;;;;;;;;10.30;100.00;98691.81;5092304;28;19924;-65
2023/10/25 11:32:03;;;;;;;;;;;;;;;10.26;100.00;98685.19;5091540;28;19926;-65
2023/10/25 11:35:08;;;;;;;;;;;;;;;10.29;100.00;98687.56;5091489;28;20026;-65
2023/10/25 11:38:11;;;;;;;;;;;;;;;10.23;100.00;98680.19;5091435;28;19995;-65
2023/10/25 11:41:14;;;;;;;;;;;;;;;10.28;100.00;98679.88;5091547;28;19923;-65
2023/10/25 11:44:21;;;;;;;;;;;;;;;10.33;100.00;98659.41;5091478;28;19974;-64
2023/10/25 11:47:26;;;;;;;;;;;;;;;10.42;100.00;98656.88;5091580;28;19963;-64
2023/10/25 11:50:29;;;;;;;;;;;;;;;10.50;100.00;98647.56;5091377;28;20399;-64
2023/10/25 11:53:32;;;;;;;;;;;;;;;10.60;100.00;98630.22;5091672;28;19969;-66
2023/10/25 11:56:35;;;;;;;;;;;;;;;10.61;100.00;98624.84;5089713;28;20248;-65
2023/10/25 12:03:48;;;;;;;;;;;;;;;10.74;100.00;98605.53;5092065;28;19927;-64
2023/10/25 12:06:51;;;;;;;;;;;;;;;10.81;100.00;98598.81;5093660;28;19958;-65
2023/10/25 12:09:54;;;;;;;;;;;;;;;10.83;100.00;98591.69;5093498;28;20374;-70
2023/10/25 12:12:57;;;;;;;;;;;;;;;10.72;100.00;98592.59;5094743;28;20287;-65
2023/10/25 12:16:00;;;;;;;;;;;;;;;10.77;100.00;98586.97;5095487;28;19923;-65
2023/10/25 12:19:04;;;;;;;;;;;;;;;10.88;100.00;98569.44;5093349;28;19977;-64
2023/10/25 12:22:10;;;;;;;;;;;;;;;10.87;100.00;98578.22;5094535;28;20291;-64
2023/10/25 12:25:13;;;;;;;;;;;;;;;10.98;100.00;98566.88;5094642;28;20291;-64
2023/10/25 12:28:19;;;;;;;;;;;;;;;11.06;100.00;98567.03;5094605;28;19923;-65
2023/10/25 12:31:23;;;;;;;;;;;;;;;10.97;100.00;98557.34;5094327;28;19927;-64
2023/10/25 12:34:28;;;;;;;;;;;;;;;11.13;100.00;98556.88;5094875;28;19923;-64
2023/10/25 12:37:31;;;;;;;;;;;;;;;11.18;100.00;98545.06;5093442;28;19938;-64
2023/10/25 12:40:35;;;;;;;;;;;;;;;11.15;100.00;98541.88;5093843;28;19922;-65
2023/10/25 12:43:39;;;;;;;;;;;;;;;10.98;100.00;98542.50;5093489;28;19926;-64
2023/10/25 12:46:43;;;;;;;;;;;;;;;11.06;100.00;98526.97;5092389;28;20025;-64
2023/10/25 12:49:46;;;;;;;;;;;;;;;10.88;100.00;98527.59;5092076;28;19923;-65
2023/10/25 12:52:50;;;;;;;;;;;;;;;10.71;100.00;98525.56;5094121;28;19923;-64
2023/10/25 12:55:53;;;;;;;;;;;;;;;10.68;100.00;98516.22;5094165;28;19969;-65
2023/10/25 12:58:56;;;;;;;;;;;;;;;10.77;100.00;98506.75;5094029;28;19923;-66
2023/10/25 13:02:01;;;;;;;;;;;;;;;10.84;100.00;98507.88;5093869;28;20457;-64
2023/10/25 13:05:06;;;;;;;;;;;;;;;10.96;100.00;98497.34;5093709;28;20291;-64
2023/10/25 13:08:10;;;;;;;;;;;;;;;10.83;100.00;98501.00;5092733;28;20394;-65
2023/10/25 13:11:17;;;;;;;;;;;;;;;10.89;100.00;98492.66;5093768;28;19974;-65
2023/10/25 13:14:20;;;;;;;;;;;;;;;10.83;100.00;98489.72;5092831;28;19923;-65
2023/10/25 13:17:23;;;;;;;;;;;;;;;10.88;100.00;98484.91;5094020;28;20364;-66
2023/10/25 13:20:26;;;;;;;;;;;;;;;11.02;100.00;98483.75;5091612;28;19923;-66
2023/10/25 13:23:29;;;;;;;;;;;;;;;11.09;100.00;98467.38;5092075;28;19926;-66
2023/10/25 13:26:54;;;;;;;;;;;;;;;11.23;100.00;98463.56;5082440;28;20302;-66
2023/10/25 13:30:00;;;;;;;;;;;;;;;11.15;100.00;98458.19;5070108;28;19927;-66
2023/10/25 13:33:03;;;;;;;;;;;;;;;11.24;100.00;98465.22;5072585;28;20445;-66
2023/10/25 13:36:12;;;;;;;;;;;;;;;11.28;100.00;98458.75;5073905;28;20295;-66
2023/10/25 13:39:15;;;;;;;;;;;;;;;11.40;100.00;98456.84;5081841;28;19966;-65
2023/10/25 13:42:18;;;;;;;;;;;;;;;11.30;100.00;98450.78;5072450;28;20422;-65
2023/10/25 13:45:21;;;;;;;;;;;;;;;11.30;100.00;98443.75;5071681;28;19923;-66
2023/10/25 13:48:24;;;;;;;;;;;;;;;11.35;100.00;98420.59;5072996;28;19924;-65
2023/10/25 13:51:27;;;;;;;;;;;;;;;11.46;100.00;98426.69;5072984;28;19955;-66
2023/10/25 13:54:31;;;;;;;;;;;;;;;11.57;100.00;98432.59;5071966;28;20429;-65
2023/10/25 13:57:36;;;;;;;;;;;;;;;11.51;100.00;98424.47;5081803;28;19939;-65
2023/10/25 14:00:39;;;;;;;;;;;;;;;11.45;100.00;98425.84;5072864;28;19927;-65
2023/10/25 14:03:44;;;;;;;;;;;;;;;11.53;100.00;98418.16;5091749;28;19927;-65
2023/10/25 14:06:47;;;;;;;;;;;;;;;11.63;100.00;98415.53;5082532;28;19924;-65
2023/10/25 14:09:50;;;;;;;;;;;;;;;11.66;100.00;98407.41;5080855;28;19923;-65
2023/10/25 14:12:54;;;;;;;;;;;;;;;11.66;100.00;98401.34;5082987;28;19999;-65
2023/10/25 14:15:57;;;;;;;;;;;;;;;11.77;100.00;98401.19;5076535;28;20066;-64
2023/10/25 14:19:00;;;;;;;;;;;;;;;11.75;100.00;98390.03;5074523;28;19939;-64
2023/10/25 14:22:04;;;;;;;;;;;;;;;11.76;100.00;98386.44;5071830;28;20470;-65
2023/10/25 14:25:07;;;;;;;;;;;;;;;11.75;100.00;98380.38;5071003;28;19923;-64
2023/10/25 14:28:10;;;;;;;;;;;;;;;11.82;100.00;98384.09;5071871;28;19967;-64
2023/10/25 14:31:14;;;;;;;;;;;;;;;11.88;100.00;98377.50;5071629;28;19973;-64
2023/10/25 14:34:17;;;;;;;;;;;;;;;11.89;100.00;98373.09;5073682;28;19993;-64
2023/10/25 14:37:21;;;;;;;;;;;;;;;11.91;100.00;98371.16;5074058;28;19974;-64
2023/10/25 14:40:24;;;;;;;;;;;;;;;11.91;100.00;98365.94;5071578;28;19923;-63
2023/10/25 14:43:27;;;;;;;;;;;;;;;11.88;100.00;98366.22;5071688;28;19942;-63
2023/10/25 14:46:30;;;;;;;;;;;;;;;11.91;100.00;98365.94;5071712;28;19970;-64
2023/10/25 14:49:33;;;;;;;;;;;;;;;11.93;100.00;98345.63;5071491;28;19969;-63
2023/10/25 14:52:38;;;;;;;;;;;;;;;11.93;100.00;98353.50;5071330;28;19924;-66
2023/10/25 14:55:41;;;;;;;;;;;;;;;11.91;100.00;98347.59;5071527;28;19923;-66
2023/10/25 14:58:45;;;;;;;;;;;;;;;11.96;100.00;98345.34;5071830;28;19974;-67
2023/10/25 15:01:51;;;;;;;;;;;;;;;11.91;100.00;98329.25;5072105;28;19923;-66
2023/10/25 15:04:57;;;;;;;;;;;;;;;11.98;100.00;98328.53;5071748;28;20378;-64
2023/10/25 15:08:01;;;;;;;;;;;;;;;11.94;100.00;98328.97;5071904;28;19924;-65
2023/10/25 15:11:05;;;;;;;;;;;;;;;11.77;100.00;98320.88;5071286;28;19923;-66
2023/10/25 15:14:08;;;;;;;;;;;;;;;11.80;100.00;98319.72;5070571;28;19939;-64
2023/10/25 15:17:12;;;;;;;;;;;;;;;11.77;100.00;98315.63;5071396;28;20295;-64
2023/10/25 15:20:19;;;;;;;;;;;;;;;11.87;100.00;98315.63;5071514;28;20352;-64
2023/10/25 15:23:23;;;;;;;;;;;;;;;11.91;100.00;98311.75;5071070;28;19946;-64
2023/10/25 15:26:26;;;;;;;;;;;;;;;11.91;100.00;98305.69;5072121;28;19998;-65
2023/10/25 15:29:30;;;;;;;;;;;;;;;11.91;100.00;98300.47;5075269;28;19924;-65
2023/10/25 15:32:34;;;;;;;;;;;;;;;11.97;100.00;98305.94;5076742;28;20009;-64
2023/10/25 15:35:37;;;;;;;;;;;;;;;11.77;100.00;98299.91;5090778;28;20241;-64
2023/10/25 15:38:47;;;;;;;;;;;;;;;11.71;100.00;98308.34;5095817;28;19974;-64
2023/10/25 15:41:50;;;;;;;;;;;;;;;11.68;100.00;98299.91;5094927;28;19969;-64
2023/10/25 15:44:53;;;;;;;;;;;;;;;11.72;100.00;98296.06;5086836;28;20286;-64
2023/10/25 15:48:04;;;;;;;;;;;;;;;11.70;100.00;98298.00;5082298;28;19939;-64
2023/10/25 15:51:07;;;;;;;;;;;;;;;11.73;100.00;98298.53;5085093;28;20016;-64
2023/10/25 15:54:11;;;;;;;;;;;;;;;11.78;100.00;98283.22;5077908;28;19943;-63
2023/10/25 15:57:14;;;;;;;;;;;;;;;11.78;100.00;98293.72;5094780;28;20387;-64
2023/10/25 16:00:18;;;;;;;;;;;;;;;11.82;100.00;98289.00;5094752;28;19924;-64